createdAt,value
2023-04-10T00:00:43.305Z,80.11
2023-04-10T00:03:22.178Z,80.30
2023-04-10T00:05:50.410Z,80.28
2023-04-10T00:08:18.092Z,80.26
2023-04-10T00:10:46.068Z,80.40
2023-04-10T00:13:14.926Z,80.25
2023-04-10T00:15:43.134Z,80.63
2023-04-10T00:18:11.111Z,80.96
2023-04-10T00:20:38.759Z,80.99
2023-04-10T00:23:06.434Z,81.14
2023-04-10T00:25:34.394Z,81.06
2023-04-10T00:28:02.151Z,81.03
2023-04-10T00:30:29.815Z,81.05
2023-04-10T00:32:57.791Z,81.27
2023-04-10T00:35:25.489Z,81.35
2023-04-10T00:37:54.621Z,81.34
2023-04-10T00:40:22.417Z,81.52
2023-04-10T00:42:50.055Z,81.41
2023-04-10T00:45:17.913Z,81.46
2023-04-10T00:47:45.768Z,81.44
2023-04-10T00:50:13.567Z,81.46
2023-04-10T00:52:41.246Z,81.70
2023-04-10T00:55:09.455Z,81.96
2023-04-10T00:57:37.591Z,81.73
2023-04-10T01:00:05.878Z,81.63
2023-04-10T01:02:33.636Z,81.54
2023-04-10T01:05:02.290Z,81.52
2023-04-10T01:07:44.914Z,81.64
2023-04-10T01:10:51.982Z,81.68
2023-04-10T01:13:23.663Z,81.61
2023-04-10T01:16:09.699Z,81.39
2023-04-10T01:18:42.233Z,81.38
2023-04-10T01:21:11.381Z,81.34
2023-04-10T01:24:11.878Z,81.45
2023-04-10T01:26:53.975Z,81.66
2023-04-10T01:29:23.467Z,81.77
2023-04-10T01:31:55.239Z,81.78
2023-04-10T01:34:28.327Z,81.79
2023-04-10T01:37:01.052Z,81.92
2023-04-10T01:39:29.366Z,81.95
2023-04-10T01:41:57.952Z,82.23
2023-04-10T01:44:28.225Z,82.35
2023-04-10T01:46:56.531Z,82.25
2023-04-10T01:49:25.391Z,82.31
2023-04-10T01:51:55.664Z,82.11
2023-04-10T01:54:23.396Z,82.16
2023-04-10T01:56:51.411Z,82.28
2023-04-10T01:59:19.583Z,82.44
2023-04-10T02:01:47.626Z,82.54
2023-04-10T02:04:15.673Z,82.59
2023-04-10T02:07:17.023Z,82.67
2023-04-10T02:09:58.814Z,82.71
2023-04-10T02:12:37.257Z,82.70
2023-04-10T02:15:06.662Z,82.85
2023-04-10T02:17:34.962Z,82.88
2023-04-10T02:20:03.737Z,82.83
2023-04-10T02:22:31.454Z,82.73
2023-04-10T02:24:59.249Z,82.83
2023-04-10T02:27:33.114Z,82.59
2023-04-10T02:30:02.468Z,82.66
2023-04-10T02:32:30.769Z,82.57
2023-04-10T02:34:58.739Z,82.81
2023-04-10T02:37:26.460Z,82.81
2023-04-10T02:39:55.051Z,82.71
2023-04-10T02:42:22.808Z,82.59
2023-04-10T02:44:50.425Z,82.71
2023-04-10T02:47:18.897Z,83.03
2023-04-10T02:49:47.187Z,83.05
2023-04-10T02:52:14.796Z,83.19
2023-04-10T02:54:42.564Z,83.27
2023-04-10T02:57:10.455Z,83.10
2023-04-10T02:59:38.106Z,83.21
2023-04-10T03:02:05.846Z,83.29
2023-04-10T03:04:33.775Z,83.47
2023-04-10T03:07:02.034Z,83.55
2023-04-10T03:09:29.673Z,83.56
2023-04-10T03:11:57.865Z,83.30
2023-04-10T03:14:27.889Z,83.54
2023-04-10T03:16:55.531Z,83.49
2023-04-10T03:19:23.621Z,83.73
2023-04-10T03:21:51.795Z,83.44
2023-04-10T03:24:19.438Z,83.53
2023-04-10T03:26:47.734Z,83.22
2023-04-10T03:29:19.061Z,83.27
2023-04-10T03:31:46.931Z,83.28
2023-04-10T03:34:14.722Z,83.24
2023-04-10T03:36:42.323Z,83.31
2023-04-10T03:39:09.990Z,83.22
2023-04-10T03:41:37.738Z,82.98
2023-04-10T03:44:05.423Z,83.20
2023-04-10T03:46:33.194Z,83.09
2023-04-10T03:49:01.159Z,83.00
2023-04-10T03:51:28.870Z,83.19
2023-04-10T03:53:56.725Z,83.10
2023-04-10T03:56:24.442Z,83.10
2023-04-10T03:58:52.038Z,83.23
2023-04-10T04:01:19.656Z,83.21
2023-04-10T04:03:47.425Z,83.32
2023-04-10T04:06:15.318Z,83.18
2023-04-10T04:08:43.010Z,83.37
2023-04-10T04:11:11.585Z,83.55
2023-04-10T04:13:39.229Z,83.56
2023-04-10T04:16:07.958Z,83.47
2023-04-10T04:18:35.812Z,83.42
2023-04-10T04:21:03.686Z,83.48
2023-04-10T04:23:31.318Z,83.75
2023-04-10T04:25:59.206Z,83.70
2023-04-10T04:28:28.417Z,83.72
2023-04-10T04:30:57.199Z,83.74
2023-04-10T04:33:24.849Z,83.96
2023-04-10T04:35:52.823Z,83.90
2023-04-10T04:38:20.549Z,83.98
2023-04-10T04:40:48.161Z,83.75
2023-04-10T04:43:16.108Z,83.88
2023-04-10T04:45:43.818Z,83.88
2023-04-10T04:48:11.852Z,83.73
2023-04-10T04:50:42.897Z,83.70
2023-04-10T04:53:10.550Z,83.82
2023-04-10T04:55:38.216Z,83.88
2023-04-10T04:58:05.975Z,84.05
2023-04-10T05:00:33.666Z,84.13
2023-04-10T05:03:01.522Z,83.95
2023-04-10T05:05:29.390Z,83.88
2023-04-10T05:07:57.014Z,84.09
2023-04-10T05:10:24.713Z,84.03
2023-04-10T05:12:52.330Z,84.02
2023-04-10T05:15:19.973Z,84.18
2023-04-10T05:17:51.082Z,84.15
2023-04-10T05:20:19.196Z,84.25
2023-04-10T05:22:46.816Z,84.09
2023-04-10T05:25:14.564Z,84.48
2023-04-10T05:27:42.197Z,84.38
2023-04-10T05:30:10.458Z,84.24
2023-04-10T05:32:38.398Z,84.33
2023-04-10T05:35:06.764Z,84.38
2023-04-10T05:37:34.544Z,84.26
2023-04-10T05:40:02.285Z,84.47
2023-04-10T05:42:30.566Z,84.53
2023-04-10T05:44:58.264Z,84.43
2023-04-10T05:47:26.099Z,84.45
2023-04-10T05:49:53.954Z,84.29
2023-04-10T05:52:21.782Z,84.36
2023-04-10T05:54:49.898Z,84.41
2023-04-10T05:57:17.832Z,84.50
2023-04-10T05:59:45.736Z,84.55
2023-04-10T06:02:13.620Z,84.49
2023-04-10T06:04:41.470Z,84.33
2023-04-10T06:07:09.353Z,84.45
2023-04-10T06:09:36.959Z,84.54
2023-04-10T06:12:04.593Z,84.33
2023-04-10T06:14:32.261Z,84.22
2023-04-10T06:17:00.001Z,84.15
2023-04-10T06:19:27.641Z,84.28
2023-04-10T06:21:55.469Z,84.35
2023-04-10T06:24:23.146Z,84.29
2023-04-10T06:26:50.815Z,84.23
2023-04-10T06:29:18.414Z,84.24
2023-04-10T06:31:48.502Z,84.14
2023-04-10T06:34:16.166Z,84.07
2023-04-10T06:36:43.988Z,83.82
2023-04-10T06:39:11.639Z,84.04
2023-04-10T06:41:39.459Z,83.90
2023-04-10T06:44:07.424Z,83.92
2023-04-10T06:46:35.290Z,83.92
2023-04-10T06:49:03.059Z,83.64
2023-04-10T06:51:31.567Z,83.59
2023-04-10T06:53:59.208Z,83.66
2023-04-10T06:56:27.083Z,83.62
2023-04-10T06:58:55.147Z,83.46
2023-04-10T07:01:23.105Z,83.46
2023-04-10T07:03:50.900Z,83.33
2023-04-10T07:06:18.816Z,83.29
2023-04-10T07:08:47.534Z,83.29
2023-04-10T07:11:15.153Z,83.24
2023-04-10T07:13:42.817Z,83.18
2023-04-10T07:16:11.424Z,83.38
2023-04-10T07:18:41.250Z,83.30
2023-04-10T07:21:13.310Z,83.18
2023-04-10T07:23:41.218Z,83.20
2023-04-10T07:26:08.916Z,82.96
2023-04-10T07:28:36.810Z,82.72
2023-04-10T07:31:04.796Z,82.85
2023-04-10T07:33:32.497Z,82.68
2023-04-10T07:36:02.580Z,82.85
2023-04-10T07:38:30.330Z,82.86
2023-04-10T07:40:58.616Z,83.05
2023-04-10T07:43:26.384Z,82.93
2023-04-10T07:45:54.131Z,82.60
2023-04-10T07:48:21.818Z,83.05
2023-04-10T07:50:50.401Z,82.84
2023-04-10T07:53:18.220Z,83.02
2023-04-10T07:55:48.775Z,82.88
2023-04-10T07:58:16.962Z,82.91
2023-04-10T08:00:45.104Z,82.77
2023-04-10T08:03:13.737Z,82.70
2023-04-10T08:05:41.833Z,82.51
2023-04-10T08:08:09.523Z,82.40
2023-04-10T08:10:40.348Z,81.91
2023-04-10T08:13:08.062Z,82.11
2023-04-10T08:15:36.211Z,81.63
2023-04-10T08:18:03.935Z,81.72
2023-04-10T08:20:37.162Z,81.05
2023-04-10T08:23:17.029Z,81.30
2023-04-10T08:25:48.215Z,81.00
2023-04-10T08:28:16.061Z,80.96
2023-04-10T08:30:43.734Z,80.26
2023-04-10T08:33:11.719Z,79.97
2023-04-10T08:35:39.443Z,79.80
2023-04-10T08:38:14.206Z,79.21
2023-04-10T08:40:44.812Z,79.47
2023-04-10T08:43:12.556Z,79.19
2023-04-10T08:45:41.354Z,78.47
2023-04-10T08:48:09.308Z,78.57
2023-04-10T08:50:37.154Z,78.68
2023-04-10T08:53:08.398Z,78.89
2023-04-10T08:55:36.201Z,78.83
2023-04-10T08:58:04.125Z,78.82
2023-04-10T09:00:34.688Z,79.29
2023-04-10T09:03:05.007Z,78.44
2023-04-10T09:05:32.765Z,78.17
2023-04-10T09:08:00.944Z,78.04
2023-04-10T09:10:29.266Z,78.18
2023-04-10T09:12:56.872Z,77.73
2023-04-10T09:15:24.666Z,76.62
2023-04-10T09:18:00.461Z,75.70
2023-04-10T09:20:31.875Z,75.77
2023-04-10T09:22:59.637Z,75.36
2023-04-10T09:25:33.442Z,75.45
2023-04-10T09:28:08.546Z,75.03
2023-04-10T09:30:40.856Z,75.00
2023-04-10T09:33:25.174Z,74.72
2023-04-10T09:35:53.072Z,74.12
2023-04-10T09:38:21.576Z,74.34
2023-04-10T09:40:49.629Z,74.48
2023-04-10T09:43:26.581Z,74.48
2023-04-10T09:45:56.496Z,74.17
2023-04-10T09:48:24.858Z,74.27
2023-04-10T09:50:52.618Z,74.69
2023-04-10T09:53:20.843Z,74.55
2023-04-10T09:55:49.002Z,73.30
2023-04-10T09:58:17.056Z,73.29
2023-04-10T10:00:46.314Z,73.67
2023-04-10T10:03:18.662Z,73.77
2023-04-10T10:05:48.821Z,73.42
2023-04-10T10:08:16.638Z,73.11
2023-04-10T10:10:48.989Z,72.76
2023-04-10T10:13:25.067Z,73.12
2023-04-10T10:16:13.398Z,73.29
2023-04-10T10:18:47.831Z,73.63
2023-04-10T10:21:16.127Z,73.83
2023-04-10T10:23:44.357Z,73.12
2023-04-10T10:26:12.051Z,72.74
2023-04-10T10:28:40.714Z,73.01
2023-04-10T10:31:08.541Z,72.94
2023-04-10T10:33:37.092Z,73.15
2023-04-10T10:36:05.414Z,72.91
2023-04-10T10:38:33.334Z,72.71
2023-04-10T10:41:16.799Z,72.22
2023-04-10T10:43:44.400Z,71.57
2023-04-10T10:46:19.178Z,71.13
2023-04-10T10:48:57.975Z,70.84
2023-04-10T10:51:44.618Z,70.98
2023-04-10T10:54:31.489Z,70.82
2023-04-10T10:56:59.983Z,71.06
2023-04-10T10:59:46.391Z,70.70
2023-04-10T11:02:18.269Z,69.90
2023-04-10T11:04:47.009Z,70.18
2023-04-10T11:07:15.776Z,70.03
2023-04-10T11:09:53.581Z,70.24
2023-04-10T11:12:24.976Z,70.25
2023-04-10T11:15:04.991Z,70.56
2023-04-10T11:17:51.437Z,70.35
2023-04-10T11:20:22.041Z,70.61
2023-04-10T11:23:11.271Z,70.53
2023-04-10T11:25:57.010Z,70.63
2023-04-10T11:28:37.708Z,70.44
2023-04-10T11:31:26.175Z,69.28
2023-04-10T11:34:00.128Z,69.78
2023-04-10T11:36:27.862Z,69.78
2023-04-10T11:39:03.018Z,69.49
2023-04-10T11:41:34.840Z,68.95
2023-04-10T11:44:04.251Z,69.26
2023-04-10T11:46:32.397Z,69.27
2023-04-10T11:49:01.789Z,68.34
2023-04-10T11:51:29.681Z,68.18
2023-04-10T11:54:10.338Z,67.33
2023-04-10T11:56:39.069Z,66.82
2023-04-10T11:59:11.198Z,66.23
2023-04-10T12:01:41.302Z,65.94
2023-04-10T12:04:17.837Z,65.46
2023-04-10T12:06:47.155Z,64.37
2023-04-10T12:09:16.471Z,63.79
2023-04-10T12:12:04.401Z,62.14
2023-04-10T12:14:35.229Z,59.99
2023-04-10T12:17:03.577Z,57.13
2023-04-10T12:19:31.567Z,56.61
2023-04-10T12:21:59.969Z,56.81
2023-04-10T12:24:50.696Z,57.14
2023-04-10T12:27:22.027Z,55.50
2023-04-10T12:29:51.227Z,56.17
2023-04-10T12:32:19.098Z,56.43
2023-04-10T12:34:50.837Z,56.55
2023-04-10T12:37:19.295Z,56.44
2023-04-10T12:39:46.960Z,56.39
2023-04-10T12:42:16.607Z,56.66
2023-04-10T12:44:58.960Z,56.92
2023-04-10T12:47:27.978Z,56.12
2023-04-10T12:50:10.221Z,55.98
2023-04-10T12:52:39.976Z,53.93
2023-04-10T12:55:12.166Z,53.38
2023-04-10T12:57:40.695Z,53.34
2023-04-10T13:00:09.718Z,53.07
2023-04-10T13:02:38.260Z,52.04
2023-04-10T13:05:06.730Z,51.63
2023-04-10T13:07:34.415Z,52.24
2023-04-10T13:10:02.120Z,51.36
2023-04-10T13:12:30.203Z,51.00
2023-04-10T13:14:57.826Z,49.12
2023-04-10T13:17:25.767Z,49.77
2023-04-10T13:19:53.593Z,50.39
2023-04-10T13:22:21.317Z,50.90
2023-04-10T13:24:49.144Z,50.57
2023-04-10T13:27:16.855Z,51.08
2023-04-10T13:29:44.586Z,51.89
2023-04-10T13:32:12.381Z,50.46
2023-04-10T13:34:40.061Z,50.43
2023-04-10T13:37:09.360Z,49.91
2023-04-10T13:39:37.083Z,48.16
2023-04-10T13:42:04.753Z,48.04
2023-04-10T13:44:32.514Z,48.11
2023-04-10T13:47:00.237Z,47.15
2023-04-10T13:49:30.581Z,46.99
2023-04-10T13:51:58.366Z,46.33
2023-04-10T13:54:26.588Z,45.81
2023-04-10T13:56:54.946Z,45.68
2023-04-10T13:59:22.780Z,45.96
2023-04-10T14:01:52.533Z,45.79
2023-04-10T14:04:20.438Z,46.42
2023-04-10T14:06:49.404Z,46.00
2023-04-10T14:09:18.316Z,45.47
2023-04-10T14:11:46.090Z,45.23
2023-04-10T14:14:13.738Z,44.62
2023-04-10T14:16:41.633Z,44.08
2023-04-10T14:19:09.418Z,42.92
2023-04-10T14:21:37.468Z,42.28
2023-04-10T14:24:05.238Z,42.49
2023-04-10T14:26:32.863Z,41.91
2023-04-10T14:29:00.710Z,42.40
2023-04-10T14:31:29.586Z,42.72
2023-04-10T14:33:57.418Z,43.27
2023-04-10T14:36:25.539Z,42.72
2023-04-10T14:38:53.626Z,42.78
2023-04-10T14:41:21.630Z,43.83
2023-04-10T14:43:49.310Z,45.18
2023-04-10T14:46:17.454Z,46.35
2023-04-10T14:48:45.194Z,45.79
2023-04-10T14:51:13.234Z,45.69
2023-04-10T14:53:40.905Z,45.08
2023-04-10T14:56:12.456Z,45.81
2023-04-10T14:58:40.441Z,44.61
2023-04-10T15:01:12.081Z,44.14
2023-04-10T15:03:40.105Z,44.46
2023-04-10T15:06:08.171Z,45.24
2023-04-10T15:08:35.863Z,45.73
2023-04-10T15:11:05.298Z,46.63
2023-04-10T15:13:33.161Z,47.07
2023-04-10T15:16:01.084Z,48.00
2023-04-10T15:18:29.125Z,48.12
2023-04-10T15:20:57.392Z,48.45
2023-04-10T15:23:26.786Z,48.53
2023-04-10T15:25:55.126Z,48.30
2023-04-10T15:28:23.338Z,48.55
2023-04-10T15:30:51.216Z,48.96
2023-04-10T15:33:19.112Z,49.49
2023-04-10T15:35:48.130Z,50.09
2023-04-10T15:38:16.044Z,50.59
2023-04-10T15:40:43.697Z,50.79
2023-04-10T15:43:12.882Z,51.16
2023-04-10T15:45:40.509Z,49.86
2023-04-10T15:48:08.239Z,50.41
2023-04-10T15:50:40.515Z,50.19
2023-04-10T15:53:08.152Z,49.78
2023-04-10T15:55:40.048Z,49.94
2023-04-10T15:58:08.116Z,50.28
2023-04-10T16:00:36.891Z,49.88
2023-04-10T16:03:05.981Z,49.46
2023-04-10T16:05:33.947Z,50.05
2023-04-10T16:08:02.814Z,50.36
2023-04-10T16:10:30.703Z,50.63
2023-04-10T16:13:04.057Z,51.15
2023-04-10T16:15:36.308Z,51.52
2023-04-10T16:18:05.082Z,52.05
2023-04-10T16:20:32.982Z,51.86
2023-04-10T16:23:01.104Z,51.43
2023-04-10T16:25:29.078Z,51.49
2023-04-10T16:27:57.170Z,51.69
2023-04-10T16:30:24.891Z,51.64
2023-04-10T16:32:53.005Z,52.00
2023-04-10T16:35:22.413Z,52.68
2023-04-10T16:37:50.475Z,53.28
2023-04-10T16:40:18.088Z,52.92
2023-04-10T16:42:45.800Z,52.97
2023-04-10T16:45:13.943Z,52.98
2023-04-10T16:47:43.987Z,53.16
2023-04-10T16:50:12.009Z,53.43
2023-04-10T16:52:40.269Z,53.61
2023-04-10T16:55:08.380Z,53.17
2023-04-10T16:57:36.562Z,52.80
2023-04-10T17:00:05.061Z,53.28
2023-04-10T17:02:33.064Z,53.37
2023-04-10T17:05:01.166Z,53.55
2023-04-10T17:07:28.881Z,54.04
2023-04-10T17:09:56.671Z,54.15
2023-04-10T17:12:24.767Z,54.70
2023-04-10T17:14:52.502Z,55.05
2023-04-10T17:17:20.445Z,55.65
2023-04-10T17:19:49.313Z,55.94
2023-04-10T17:22:17.509Z,55.95
2023-04-10T17:24:46.195Z,56.31
2023-04-10T17:27:14.437Z,56.52
2023-04-10T17:29:42.638Z,56.72
2023-04-10T17:32:11.073Z,56.70
2023-04-10T17:34:39.002Z,57.15
2023-04-10T17:37:06.689Z,57.69
2023-04-10T17:39:34.807Z,58.05
2023-04-10T17:42:03.009Z,57.99
2023-04-10T17:44:31.554Z,58.01
2023-04-10T17:46:59.664Z,57.84
2023-04-10T17:49:27.957Z,58.11
2023-04-10T17:51:55.965Z,58.30
2023-04-10T17:54:24.420Z,58.15
2023-04-10T17:56:52.758Z,58.60
2023-04-10T17:59:20.818Z,58.96
2023-04-10T18:01:49.115Z,59.24
2023-04-10T18:04:17.291Z,59.67
2023-04-10T18:06:45.457Z,60.00
2023-04-10T18:09:13.679Z,60.29
2023-04-10T18:11:41.594Z,60.51
2023-04-10T18:14:10.049Z,60.99
2023-04-10T18:16:37.915Z,60.90
2023-04-10T18:19:05.829Z,61.15
2023-04-10T18:21:34.902Z,61.44
2023-04-10T18:24:03.750Z,61.64
2023-04-10T18:26:33.418Z,61.62
2023-04-10T18:29:01.474Z,61.65
2023-04-10T18:31:29.826Z,61.65
2023-04-10T18:34:06.959Z,61.58
2023-04-10T18:36:36.235Z,61.85
2023-04-10T18:39:04.862Z,61.99
2023-04-10T18:41:32.815Z,62.17
2023-04-10T18:44:05.272Z,62.18
2023-04-10T18:46:33.936Z,62.34
2023-04-10T18:49:03.230Z,62.58
2023-04-10T18:51:33.451Z,62.89
2023-04-10T18:54:06.218Z,63.02
2023-04-10T18:56:35.750Z,63.28
2023-04-10T18:59:04.473Z,63.06
2023-04-10T19:01:32.864Z,63.05
2023-04-10T19:04:01.121Z,63.30
2023-04-10T19:06:30.400Z,63.20
2023-04-10T19:08:58.461Z,63.54
2023-04-10T19:11:26.125Z,64.00
2023-04-10T19:13:54.686Z,64.54
2023-04-10T19:16:23.343Z,64.37
2023-04-10T19:18:53.891Z,64.85
2023-04-10T19:21:22.111Z,65.52
2023-04-10T19:23:50.617Z,65.69
2023-04-10T19:26:20.101Z,65.76
2023-04-10T19:28:47.732Z,66.03
2023-04-10T19:31:15.811Z,66.30
2023-04-10T19:33:44.106Z,66.57
2023-04-10T19:36:12.313Z,66.88
2023-04-10T19:38:40.912Z,66.80
2023-04-10T19:41:15.558Z,67.20
2023-04-10T19:43:43.290Z,67.40
2023-04-10T19:46:17.909Z,67.63
2023-04-10T19:48:46.350Z,67.93
2023-04-10T19:51:14.767Z,68.38
2023-04-10T19:53:42.832Z,68.67
2023-04-10T19:56:10.862Z,68.82
2023-04-10T19:58:41.435Z,68.79
2023-04-10T20:01:10.365Z,69.19
2023-04-10T20:03:38.811Z,69.26
2023-04-10T20:06:07.595Z,69.38
2023-04-10T20:08:35.855Z,69.66
2023-04-10T20:11:06.395Z,69.68
2023-04-10T20:13:41.503Z,69.65
2023-04-10T20:16:09.207Z,70.00
2023-04-10T20:18:37.146Z,69.46
2023-04-10T20:21:07.526Z,69.58
2023-04-10T20:23:35.185Z,69.56
2023-04-10T20:26:02.902Z,69.67
2023-04-10T20:28:31.680Z,70.04
2023-04-10T20:30:59.325Z,69.71
2023-04-10T20:33:26.990Z,69.95
2023-04-10T20:35:54.709Z,69.50
2023-04-10T20:38:22.389Z,70.01
2023-04-10T20:40:50.319Z,69.92
2023-04-10T20:43:18.803Z,69.74
2023-04-10T20:45:46.410Z,70.31
2023-04-10T20:48:14.138Z,70.00
2023-04-10T20:50:43.728Z,70.28
2023-04-10T20:53:12.795Z,70.26
2023-04-10T20:55:40.686Z,70.25
2023-04-10T20:58:08.464Z,70.37
2023-04-10T21:00:36.313Z,70.21
2023-04-10T21:03:04.284Z,70.13
2023-04-10T21:05:32.155Z,69.86
2023-04-10T21:07:59.762Z,69.69
2023-04-10T21:10:27.377Z,69.53
2023-04-10T21:12:55.043Z,69.46
2023-04-10T21:15:22.726Z,69.65
2023-04-10T21:17:50.464Z,69.83
2023-04-10T21:20:18.191Z,69.68
2023-04-10T21:22:45.821Z,69.46
2023-04-10T21:25:13.470Z,69.61
2023-04-10T21:27:41.057Z,69.85
2023-04-10T21:30:09.194Z,69.67
2023-04-10T21:32:37.107Z,69.83
2023-04-10T21:35:05.506Z,69.73
2023-04-10T21:37:33.188Z,69.69
2023-04-10T21:40:00.836Z,69.74
2023-04-10T21:42:28.537Z,70.01
2023-04-10T21:44:56.182Z,70.39
2023-04-10T21:47:23.863Z,70.74
2023-04-10T21:49:51.521Z,70.72
2023-04-10T21:52:19.141Z,70.79
2023-04-10T21:54:46.815Z,71.15
2023-04-10T21:57:14.450Z,71.05
2023-04-10T21:59:42.105Z,71.09
2023-04-10T22:02:10.759Z,71.37
2023-04-10T22:04:47.848Z,71.28
2023-04-10T22:07:21.494Z,70.68
2023-04-10T22:09:49.206Z,70.34
2023-04-10T22:12:16.997Z,70.33
2023-04-10T22:14:44.662Z,70.66
2023-04-10T22:17:12.365Z,70.79
2023-04-10T22:19:40.353Z,70.92
2023-04-10T22:22:08.166Z,71.08
2023-04-10T22:24:35.816Z,70.97
2023-04-10T22:27:03.534Z,70.98
2023-04-10T22:29:31.175Z,70.52
2023-04-10T22:31:58.904Z,70.78
2023-04-10T22:34:26.529Z,71.25
2023-04-10T22:36:54.178Z,71.48
2023-04-10T22:39:21.888Z,71.89
2023-04-10T22:41:49.587Z,72.42
2023-04-10T22:44:17.576Z,72.43
2023-04-10T22:46:48.223Z,72.50
2023-04-10T22:49:17.200Z,72.78
2023-04-10T22:51:45.920Z,72.47
2023-04-10T22:54:15.904Z,72.55
2023-04-10T22:56:44.227Z,72.47
2023-04-10T22:59:12.187Z,72.60
2023-04-10T23:01:39.905Z,72.41
2023-04-10T23:04:07.786Z,72.68
2023-04-10T23:06:35.441Z,72.62
2023-04-10T23:09:03.450Z,72.71
2023-04-10T23:11:31.137Z,72.78
2023-04-10T23:13:58.828Z,72.92
2023-04-10T23:16:27.144Z,72.80
2023-04-10T23:18:55.308Z,72.65
2023-04-10T23:21:23.085Z,72.62
2023-04-10T23:23:50.789Z,72.54
2023-04-10T23:26:18.447Z,72.30
2023-04-10T23:28:46.942Z,71.89
2023-04-10T23:31:14.920Z,71.87
2023-04-10T23:33:42.739Z,72.10
2023-04-10T23:36:10.510Z,72.26
2023-04-10T23:38:38.150Z,72.35
2023-04-10T23:41:07.128Z,72.45
2023-04-10T23:43:34.797Z,72.52
2023-04-10T23:46:02.456Z,73.02
2023-04-10T23:48:30.197Z,72.94
2023-04-10T23:51:05.359Z,72.82
2023-04-10T23:53:33.052Z,73.18
2023-04-10T23:56:01.057Z,73.34
2023-04-10T23:58:28.698Z,73.61
